sensor_id;sensor_type;location;lat;lon;timestamp;P1;durP1;ratioP1;P2;durP2;ratioP2
76863;SDS011;65834;52.364;9.754;2023-05-10T00:00:16;8.57;;;3.20;;
76863;SDS011;65834;52.364;9.754;2023-05-10T00:02:49;8.63;;;2.92;;
76863;SDS011;65834;52.364;9.754;2023-05-10T00:05:19;8.20;;;2.92;;
76863;SDS011;65834;52.364;9.754;2023-05-10T00:07:48;10.30;;;3.78;;
76863;SDS011;65834;52.364;9.754;2023-05-10T00:10:18;7.25;;;2.90;;
76863;SDS011;65834;52.364;9.754;2023-05-10T00:12:47;7.65;;;3.13;;
76863;SDS011;65834;52.364;9.754;2023-05-10T00:15:17;8.43;;;3.10;;
76863;SDS011;65834;52.364;9.754;2023-05-10T00:17:49;8.00;;;2.95;;
76863;SDS011;65834;52.364;9.754;2023-05-10T00:20:19;9.88;;;2.88;;
76863;SDS011;65834;52.364;9.754;2023-05-10T00:22:48;9.15;;;3.22;;
76863;SDS011;65834;52.364;9.754;2023-05-10T00:25:18;7.57;;;2.95;;
76863;SDS011;65834;52.364;9.754;2023-05-10T00:27:47;5.93;;;2.97;;
76863;SDS011;65834;52.364;9.754;2023-05-10T00:30:17;7.57;;;3.13;;
76863;SDS011;65834;52.364;9.754;2023-05-10T00:32:49;7.32;;;3.10;;
76863;SDS011;65834;52.364;9.754;2023-05-10T00:35:19;6.60;;;3.40;;
76863;SDS011;65834;52.364;9.754;2023-05-10T00:37:48;6.88;;;3.00;;
76863;SDS011;65834;52.364;9.754;2023-05-10T00:40:19;7.05;;;3.20;;
76863;SDS011;65834;52.364;9.754;2023-05-10T00:42:54;7.35;;;3.38;;
76863;SDS011;65834;52.364;9.754;2023-05-10T00:45:23;8.18;;;3.17;;
76863;SDS011;65834;52.364;9.754;2023-05-10T00:47:56;7.22;;;3.05;;
76863;SDS011;65834;52.364;9.754;2023-05-10T00:52:55;8.48;;;3.20;;
76863;SDS011;65834;52.364;9.754;2023-05-10T00:55:25;8.25;;;3.33;;
76863;SDS011;65834;52.364;9.754;2023-05-10T00:57:55;8.93;;;3.15;;
76863;SDS011;65834;52.364;9.754;2023-05-10T01:00:25;9.13;;;3.42;;
76863;SDS011;65834;52.364;9.754;2023-05-10T01:02:58;8.60;;;3.05;;
76863;SDS011;65834;52.364;9.754;2023-05-10T01:05:28;9.35;;;3.20;;
76863;SDS011;65834;52.364;9.754;2023-05-10T01:07:58;10.30;;;3.40;;
76863;SDS011;65834;52.364;9.754;2023-05-10T01:10:29;10.57;;;3.70;;
76863;SDS011;65834;52.364;9.754;2023-05-10T01:12:59;9.68;;;3.60;;
76863;SDS011;65834;52.364;9.754;2023-05-10T01:15:29;10.48;;;3.28;;
76863;SDS011;65834;52.364;9.754;2023-05-10T01:18:02;8.52;;;3.40;;
76863;SDS011;65834;52.364;9.754;2023-05-10T01:20:35;9.48;;;3.50;;
76863;SDS011;65834;52.364;9.754;2023-05-10T01:26:14;9.50;;;3.72;;
76863;SDS011;65834;52.364;9.754;2023-05-10T01:28:58;8.18;;;3.70;;
76863;SDS011;65834;52.364;9.754;2023-05-10T01:32:02;11.73;;;4.85;;
76863;SDS011;65834;52.364;9.754;2023-05-10T01:34:48;10.00;;;3.83;;
76863;SDS011;65834;52.364;9.754;2023-05-10T01:37:31;11.15;;;3.70;;
76863;SDS011;65834;52.364;9.754;2023-05-10T01:40:11;10.38;;;3.70;;
76863;SDS011;65834;52.364;9.754;2023-05-10T01:42:55;9.18;;;3.47;;
76863;SDS011;65834;52.364;9.754;2023-05-10T01:45:30;9.02;;;3.55;;
76863;SDS011;65834;52.364;9.754;2023-05-10T01:48:06;9.88;;;3.97;;
76863;SDS011;65834;52.364;9.754;2023-05-10T01:50:39;8.90;;;3.90;;
76863;SDS011;65834;52.364;9.754;2023-05-10T01:53:12;8.38;;;3.78;;
76863;SDS011;65834;52.364;9.754;2023-05-10T01:55:48;11.18;;;3.90;;
76863;SDS011;65834;52.364;9.754;2023-05-10T01:58:23;10.80;;;4.05;;
76863;SDS011;65834;52.364;9.754;2023-05-10T02:00:56;10.25;;;3.88;;
76863;SDS011;65834;52.364;9.754;2023-05-10T02:03:31;9.88;;;4.25;;
76863;SDS011;65834;52.364;9.754;2023-05-10T02:06:03;8.18;;;3.70;;
76863;SDS011;65834;52.364;9.754;2023-05-10T02:08:34;9.23;;;4.00;;
76863;SDS011;65834;52.364;9.754;2023-05-10T02:11:05;11.82;;;4.60;;
76863;SDS011;65834;52.364;9.754;2023-05-10T02:13:35;11.20;;;4.20;;
76863;SDS011;65834;52.364;9.754;2023-05-10T02:16:07;8.75;;;4.18;;
76863;SDS011;65834;52.364;9.754;2023-05-10T02:18:40;10.95;;;4.57;;
76863;SDS011;65834;52.364;9.754;2023-05-10T02:21:10;11.50;;;4.97;;
76863;SDS011;65834;52.364;9.754;2023-05-10T02:23:41;9.35;;;4.13;;
76863;SDS011;65834;52.364;9.754;2023-05-10T02:26:12;9.25;;;4.15;;
76863;SDS011;65834;52.364;9.754;2023-05-10T02:28:43;10.25;;;4.40;;
76863;SDS011;65834;52.364;9.754;2023-05-10T02:31:13;10.68;;;4.75;;
76863;SDS011;65834;52.364;9.754;2023-05-10T02:33:46;10.38;;;4.07;;
76863;SDS011;65834;52.364;9.754;2023-05-10T02:36:17;11.48;;;4.68;;
76863;SDS011;65834;52.364;9.754;2023-05-10T02:38:50;9.70;;;4.35;;
76863;SDS011;65834;52.364;9.754;2023-05-10T02:41:23;10.02;;;4.20;;
76863;SDS011;65834;52.364;9.754;2023-05-10T02:43:55;10.95;;;3.92;;
76863;SDS011;65834;52.364;9.754;2023-05-10T02:46:28;12.50;;;4.87;;
76863;SDS011;65834;52.364;9.754;2023-05-10T02:49:03;11.05;;;4.57;;
76863;SDS011;65834;52.364;9.754;2023-05-10T02:51:34;10.10;;;4.53;;
76863;SDS011;65834;52.364;9.754;2023-05-10T02:54:07;12.30;;;5.20;;
76863;SDS011;65834;52.364;9.754;2023-05-10T02:56:42;11.30;;;5.15;;
76863;SDS011;65834;52.364;9.754;2023-05-10T02:59:16;11.23;;;4.63;;
76863;SDS011;65834;52.364;9.754;2023-05-10T03:01:46;12.52;;;4.63;;
76863;SDS011;65834;52.364;9.754;2023-05-10T03:04:18;10.23;;;4.03;;
76863;SDS011;65834;52.364;9.754;2023-05-10T03:06:48;9.88;;;4.53;;
76863;SDS011;65834;52.364;9.754;2023-05-10T03:09:17;12.23;;;5.07;;
76863;SDS011;65834;52.364;9.754;2023-05-10T03:11:50;10.93;;;5.05;;
76863;SDS011;65834;52.364;9.754;2023-05-10T03:14:30;10.70;;;5.43;;
76863;SDS011;65834;52.364;9.754;2023-05-10T03:17:14;9.43;;;4.78;;
76863;SDS011;65834;52.364;9.754;2023-05-10T03:19:51;12.35;;;5.38;;
76863;SDS011;65834;52.364;9.754;2023-05-10T03:22:24;10.93;;;5.53;;
76863;SDS011;65834;52.364;9.754;2023-05-10T03:24:59;11.70;;;5.85;;
76863;SDS011;65834;52.364;9.754;2023-05-10T03:27:33;10.80;;;5.20;;
76863;SDS011;65834;52.364;9.754;2023-05-10T03:30:06;11.32;;;4.60;;
76863;SDS011;65834;52.364;9.754;2023-05-10T03:32:37;12.38;;;5.43;;
76863;SDS011;65834;52.364;9.754;2023-05-10T03:35:11;12.32;;;5.35;;
76863;SDS011;65834;52.364;9.754;2023-05-10T03:37:42;14.18;;;5.57;;
76863;SDS011;65834;52.364;9.754;2023-05-10T03:40:13;12.23;;;5.53;;
76863;SDS011;65834;52.364;9.754;2023-05-10T03:42:43;10.68;;;4.85;;
76863;SDS011;65834;52.364;9.754;2023-05-10T03:45:13;11.32;;;5.38;;
76863;SDS011;65834;52.364;9.754;2023-05-10T03:47:42;11.20;;;5.22;;
76863;SDS011;65834;52.364;9.754;2023-05-10T03:50:14;11.85;;;6.03;;
76863;SDS011;65834;52.364;9.754;2023-05-10T03:55:14;10.90;;;4.82;;
76863;SDS011;65834;52.364;9.754;2023-05-10T03:57:44;12.95;;;5.78;;
76863;SDS011;65834;52.364;9.754;2023-05-10T04:00:16;12.00;;;5.32;;
76863;SDS011;65834;52.364;9.754;2023-05-10T04:02:49;13.00;;;5.65;;
76863;SDS011;65834;52.364;9.754;2023-05-10T04:05:22;11.93;;;5.18;;
76863;SDS011;65834;52.364;9.754;2023-05-10T04:10:21;13.43;;;5.45;;
76863;SDS011;65834;52.364;9.754;2023-05-10T04:12:50;12.38;;;5.30;;
76863;SDS011;65834;52.364;9.754;2023-05-10T04:15:20;11.37;;;5.60;;
76863;SDS011;65834;52.364;9.754;2023-05-10T04:17:49;13.17;;;5.83;;
76863;SDS011;65834;52.364;9.754;2023-05-10T04:20:22;11.13;;;5.53;;
76863;SDS011;65834;52.364;9.754;2023-05-10T04:22:52;11.65;;;5.57;;
76863;SDS011;65834;52.364;9.754;2023-05-10T04:25:21;11.00;;;5.47;;
76863;SDS011;65834;52.364;9.754;2023-05-10T04:27:51;14.03;;;6.00;;
76863;SDS011;65834;52.364;9.754;2023-05-10T04:30:21;12.50;;;5.93;;
76863;SDS011;65834;52.364;9.754;2023-05-10T04:32:50;11.83;;;5.77;;
76863;SDS011;65834;52.364;9.754;2023-05-10T04:35:19;12.90;;;6.07;;
76863;SDS011;65834;52.364;9.754;2023-05-10T04:40:21;11.98;;;5.90;;
76863;SDS011;65834;52.364;9.754;2023-05-10T04:42:51;11.70;;;5.43;;
76863;SDS011;65834;52.364;9.754;2023-05-10T04:45:20;11.20;;;5.40;;
76863;SDS011;65834;52.364;9.754;2023-05-10T04:47:50;11.80;;;5.67;;
76863;SDS011;65834;52.364;9.754;2023-05-10T04:50:19;12.90;;;6.30;;
76863;SDS011;65834;52.364;9.754;2023-05-10T04:52:52;11.95;;;6.00;;
76863;SDS011;65834;52.364;9.754;2023-05-10T04:55:21;11.73;;;5.90;;
76863;SDS011;65834;52.364;9.754;2023-05-10T04:57:51;13.33;;;6.43;;
76863;SDS011;65834;52.364;9.754;2023-05-10T05:00:23;13.82;;;5.20;;
76863;SDS011;65834;52.364;9.754;2023-05-10T05:02:52;12.50;;;6.17;;
76863;SDS011;65834;52.364;9.754;2023-05-10T05:05:24;11.57;;;6.10;;
76863;SDS011;65834;52.364;9.754;2023-05-10T05:07:54;14.45;;;6.40;;
76863;SDS011;65834;52.364;9.754;2023-05-10T05:10:23;15.07;;;6.40;;
76863;SDS011;65834;52.364;9.754;2023-05-10T05:12:53;12.30;;;6.20;;
76863;SDS011;65834;52.364;9.754;2023-05-10T05:15:22;13.40;;;5.80;;
76863;SDS011;65834;52.364;9.754;2023-05-10T05:17:52;11.70;;;5.97;;
76863;SDS011;65834;52.364;9.754;2023-05-10T05:20:21;14.07;;;6.37;;
76863;SDS011;65834;52.364;9.754;2023-05-10T05:22:53;12.13;;;5.83;;
76863;SDS011;65834;52.364;9.754;2023-05-10T05:25:23;11.43;;;5.85;;
76863;SDS011;65834;52.364;9.754;2023-05-10T05:27:52;13.13;;;6.17;;
76863;SDS011;65834;52.364;9.754;2023-05-10T05:30:22;11.17;;;5.43;;
76863;SDS011;65834;52.364;9.754;2023-05-10T05:32:51;15.27;;;6.60;;
76863;SDS011;65834;52.364;9.754;2023-05-10T05:35:21;12.30;;;6.03;;
76863;SDS011;65834;52.364;9.754;2023-05-10T05:37:50;12.23;;;5.60;;
76863;SDS011;65834;52.364;9.754;2023-05-10T05:40:22;11.88;;;5.75;;
76863;SDS011;65834;52.364;9.754;2023-05-10T05:42:52;13.57;;;5.83;;
76863;SDS011;65834;52.364;9.754;2023-05-10T05:45:21;13.97;;;6.57;;
76863;SDS011;65834;52.364;9.754;2023-05-10T05:47:51;12.40;;;5.87;;
76863;SDS011;65834;52.364;9.754;2023-05-10T05:50:20;12.53;;;5.93;;
76863;SDS011;65834;52.364;9.754;2023-05-10T05:52:50;11.60;;;6.00;;
76863;SDS011;65834;52.364;9.754;2023-05-10T05:55:22;10.77;;;5.27;;
76863;SDS011;65834;52.364;9.754;2023-05-10T05:57:52;12.32;;;5.72;;
76863;SDS011;65834;52.364;9.754;2023-05-10T06:00:21;11.77;;;4.80;;
76863;SDS011;65834;52.364;9.754;2023-05-10T06:02:51;11.67;;;5.60;;
76863;SDS011;65834;52.364;9.754;2023-05-10T06:05:20;11.83;;;5.27;;
76863;SDS011;65834;52.364;9.754;2023-05-10T06:07:50;11.73;;;5.20;;
76863;SDS011;65834;52.364;9.754;2023-05-10T06:10:22;12.23;;;5.43;;
76863;SDS011;65834;52.364;9.754;2023-05-10T06:12:51;11.48;;;5.28;;
76863;SDS011;65834;52.364;9.754;2023-05-10T06:15:21;11.50;;;5.80;;
76863;SDS011;65834;52.364;9.754;2023-05-10T06:17:51;12.10;;;5.43;;
76863;SDS011;65834;52.364;9.754;2023-05-10T06:20:20;13.10;;;5.37;;
76863;SDS011;65834;52.364;9.754;2023-05-10T06:22:50;15.23;;;5.97;;
76863;SDS011;65834;52.364;9.754;2023-05-10T06:25:22;10.33;;;5.03;;
76863;SDS011;65834;52.364;9.754;2023-05-10T06:27:51;12.48;;;5.18;;
76863;SDS011;65834;52.364;9.754;2023-05-10T06:30:24;12.02;;;5.68;;
76863;SDS011;65834;52.364;9.754;2023-05-10T06:32:55;13.33;;;5.90;;
76863;SDS011;65834;52.364;9.754;2023-05-10T06:35:26;11.17;;;5.77;;
76863;SDS011;65834;52.364;9.754;2023-05-10T06:37:55;13.70;;;6.40;;
76863;SDS011;65834;52.364;9.754;2023-05-10T06:40:28;13.33;;;5.57;;
76863;SDS011;65834;52.364;9.754;2023-05-10T06:42:57;12.73;;;6.00;;
76863;SDS011;65834;52.364;9.754;2023-05-10T06:45:27;13.07;;;6.43;;
76863;SDS011;65834;52.364;9.754;2023-05-10T06:47:56;12.00;;;5.53;;
76863;SDS011;65834;52.364;9.754;2023-05-10T06:50:26;13.37;;;6.27;;
76863;SDS011;65834;52.364;9.754;2023-05-10T06:52:56;14.70;;;6.27;;
76863;SDS011;65834;52.364;9.754;2023-05-10T06:55:28;12.43;;;5.90;;
76863;SDS011;65834;52.364;9.754;2023-05-10T06:57:57;14.30;;;6.30;;
76863;SDS011;65834;52.364;9.754;2023-05-10T07:00:27;12.70;;;6.27;;
76863;SDS011;65834;52.364;9.754;2023-05-10T07:02:56;11.93;;;5.30;;
76863;SDS011;65834;52.364;9.754;2023-05-10T07:05:26;11.40;;;5.43;;
76863;SDS011;65834;52.364;9.754;2023-05-10T07:07:56;13.97;;;5.93;;
76863;SDS011;65834;52.364;9.754;2023-05-10T07:10:28;12.35;;;5.68;;
76863;SDS011;65834;52.364;9.754;2023-05-10T07:12:58;11.48;;;5.85;;
76863;SDS011;65834;52.364;9.754;2023-05-10T07:15:28;12.02;;;5.65;;
76863;SDS011;65834;52.364;9.754;2023-05-10T07:17:58;12.32;;;5.72;;
76863;SDS011;65834;52.364;9.754;2023-05-10T07:20:27;12.45;;;5.53;;
76863;SDS011;65834;52.364;9.754;2023-05-10T07:22:57;10.57;;;5.53;;
76863;SDS011;65834;52.364;9.754;2023-05-10T07:25:29;12.60;;;5.55;;
76863;SDS011;65834;52.364;9.754;2023-05-10T07:27:58;12.00;;;5.82;;
76863;SDS011;65834;52.364;9.754;2023-05-10T07:30:28;12.45;;;5.93;;
76863;SDS011;65834;52.364;9.754;2023-05-10T07:32:57;13.52;;;6.10;;
76863;SDS011;65834;52.364;9.754;2023-05-10T07:35:27;11.45;;;5.57;;
76863;SDS011;65834;52.364;9.754;2023-05-10T07:37:56;14.23;;;6.00;;
76863;SDS011;65834;52.364;9.754;2023-05-10T07:40:29;12.75;;;5.72;;
76863;SDS011;65834;52.364;9.754;2023-05-10T07:42:59;12.73;;;5.60;;
76863;SDS011;65834;52.364;9.754;2023-05-10T07:45:29;12.10;;;5.67;;
76863;SDS011;65834;52.364;9.754;2023-05-10T07:47:58;14.07;;;6.13;;
76863;SDS011;65834;52.364;9.754;2023-05-10T07:50:30;13.25;;;5.72;;
76863;SDS011;65834;52.364;9.754;2023-05-10T07:53:00;12.63;;;5.85;;
76863;SDS011;65834;52.364;9.754;2023-05-10T07:55:32;12.23;;;5.67;;
76863;SDS011;65834;52.364;9.754;2023-05-10T07:58:02;13.00;;;5.95;;
76863;SDS011;65834;52.364;9.754;2023-05-10T08:00:31;12.03;;;5.53;;
76863;SDS011;65834;52.364;9.754;2023-05-10T08:03:01;12.37;;;5.20;;
76863;SDS011;65834;52.364;9.754;2023-05-10T08:05:31;12.10;;;5.00;;
76863;SDS011;65834;52.364;9.754;2023-05-10T08:08:01;11.20;;;4.90;;
76863;SDS011;65834;52.364;9.754;2023-05-10T08:10:33;9.90;;;3.70;;
76863;SDS011;65834;52.364;9.754;2023-05-10T08:13:02;10.07;;;4.30;;
76863;SDS011;65834;52.364;9.754;2023-05-10T08:15:32;7.63;;;3.07;;
76863;SDS011;65834;52.364;9.754;2023-05-10T08:18:01;9.30;;;3.78;;
76863;SDS011;65834;52.364;9.754;2023-05-10T08:20:31;8.70;;;3.17;;
76863;SDS011;65834;52.364;9.754;2023-05-10T08:23:01;7.90;;;2.77;;
76863;SDS011;65834;52.364;9.754;2023-05-10T08:25:35;5.70;;;2.50;;
76863;SDS011;65834;52.364;9.754;2023-05-10T08:28:04;5.25;;;2.58;;
76863;SDS011;65834;52.364;9.754;2023-05-10T08:30:37;6.00;;;2.20;;
76863;SDS011;65834;52.364;9.754;2023-05-10T08:33:06;4.72;;;1.70;;
76863;SDS011;65834;52.364;9.754;2023-05-10T08:35:36;4.22;;;1.90;;
76863;SDS011;65834;52.364;9.754;2023-05-10T08:38:05;1.90;;;1.20;;
76863;SDS011;65834;52.364;9.754;2023-05-10T08:40:37;3.15;;;1.60;;
76863;SDS011;65834;52.364;9.754;2023-05-10T08:43:10;2.10;;;1.30;;
76863;SDS011;65834;52.364;9.754;2023-05-10T08:45:42;2.78;;;1.58;;
76863;SDS011;65834;52.364;9.754;2023-05-10T08:48:14;3.40;;;1.50;;
76863;SDS011;65834;52.364;9.754;2023-05-10T08:50:44;4.70;;;1.92;;
76863;SDS011;65834;52.364;9.754;2023-05-10T08:53:15;6.28;;;2.20;;
76863;SDS011;65834;52.364;9.754;2023-05-10T08:55:48;3.28;;;1.80;;
76863;SDS011;65834;52.364;9.754;2023-05-10T08:58:17;4.40;;;1.90;;
76863;SDS011;65834;52.364;9.754;2023-05-10T09:00:48;4.38;;;2.00;;
76863;SDS011;65834;52.364;9.754;2023-05-10T09:03:19;4.80;;;2.08;;
76863;SDS011;65834;52.364;9.754;2023-05-10T09:05:49;2.67;;;1.55;;
76863;SDS011;65834;52.364;9.754;2023-05-10T09:08:19;5.57;;;2.30;;
76863;SDS011;65834;52.364;9.754;2023-05-10T09:13:24;5.33;;;2.50;;
76863;SDS011;65834;52.364;9.754;2023-05-10T09:15:53;4.05;;;1.60;;
76863;SDS011;65834;52.364;9.754;2023-05-10T09:18:32;3.80;;;1.83;;
76863;SDS011;65834;52.364;9.754;2023-05-10T09:21:01;3.42;;;2.08;;
76863;SDS011;65834;52.364;9.754;2023-05-10T09:23:31;2.75;;;1.85;;
76863;SDS011;65834;52.364;9.754;2023-05-10T09:26:04;6.20;;;2.33;;
76863;SDS011;65834;52.364;9.754;2023-05-10T09:28:34;4.95;;;2.10;;
76863;SDS011;65834;52.364;9.754;2023-05-10T09:31:18;5.57;;;2.20;;
76863;SDS011;65834;52.364;9.754;2023-05-10T09:33:49;5.20;;;2.30;;
76863;SDS011;65834;52.364;9.754;2023-05-10T09:36:19;7.78;;;2.63;;
76863;SDS011;65834;52.364;9.754;2023-05-10T09:38:50;7.65;;;2.75;;
76863;SDS011;65834;52.364;9.754;2023-05-10T09:41:24;6.05;;;2.75;;
76863;SDS011;65834;52.364;9.754;2023-05-10T09:43:55;7.80;;;2.60;;
76863;SDS011;65834;52.364;9.754;2023-05-10T09:46:25;5.70;;;2.67;;
76863;SDS011;65834;52.364;9.754;2023-05-10T09:48:54;4.65;;;2.40;;
76863;SDS011;65834;52.364;9.754;2023-05-10T09:51:24;5.68;;;2.53;;
76863;SDS011;65834;52.364;9.754;2023-05-10T09:54:08;5.35;;;2.22;;
76863;SDS011;65834;52.364;9.754;2023-05-10T09:56:41;6.95;;;2.35;;
76863;SDS011;65834;52.364;9.754;2023-05-10T10:01:41;7.15;;;2.70;;
76863;SDS011;65834;52.364;9.754;2023-05-10T10:04:11;6.45;;;2.75;;
76863;SDS011;65834;52.364;9.754;2023-05-10T10:06:40;6.45;;;2.92;;
76863;SDS011;65834;52.364;9.754;2023-05-10T10:09:10;6.38;;;2.70;;
76863;SDS011;65834;52.364;9.754;2023-05-10T10:11:43;7.45;;;2.80;;
76863;SDS011;65834;52.364;9.754;2023-05-10T10:14:12;7.75;;;3.35;;
76863;SDS011;65834;52.364;9.754;2023-05-10T10:16:42;9.52;;;3.70;;
76863;SDS011;65834;52.364;9.754;2023-05-10T10:19:30;13.25;;;4.63;;
76863;SDS011;65834;52.364;9.754;2023-05-10T10:22:02;12.40;;;5.65;;
76863;SDS011;65834;52.364;9.754;2023-05-10T10:24:32;9.38;;;3.90;;
76863;SDS011;65834;52.364;9.754;2023-05-10T10:27:07;8.40;;;3.63;;
76863;SDS011;65834;52.364;9.754;2023-05-10T10:29:51;6.80;;;2.83;;
76863;SDS011;65834;52.364;9.754;2023-05-10T10:32:30;7.85;;;2.67;;
76863;SDS011;65834;52.364;9.754;2023-05-10T10:35:07;6.85;;;2.72;;
76863;SDS011;65834;52.364;9.754;2023-05-10T10:37:41;6.00;;;2.58;;
76863;SDS011;65834;52.364;9.754;2023-05-10T10:40:25;7.18;;;3.00;;
76863;SDS011;65834;52.364;9.754;2023-05-10T10:43:21;7.82;;;2.88;;
76863;SDS011;65834;52.364;9.754;2023-05-10T10:48:39;6.40;;;2.80;;
76863;SDS011;65834;52.364;9.754;2023-05-10T10:51:08;7.68;;;3.10;;
76863;SDS011;65834;52.364;9.754;2023-05-10T10:53:39;7.30;;;3.10;;
76863;SDS011;65834;52.364;9.754;2023-05-10T10:56:10;6.60;;;3.05;;
76863;SDS011;65834;52.364;9.754;2023-05-10T11:01:20;10.02;;;2.78;;
76863;SDS011;65834;52.364;9.754;2023-05-10T11:06:46;6.97;;;2.72;;
76863;SDS011;65834;52.364;9.754;2023-05-10T11:09:16;6.57;;;2.72;;
76863;SDS011;65834;52.364;9.754;2023-05-10T11:11:51;7.45;;;2.88;;
76863;SDS011;65834;52.364;9.754;2023-05-10T11:14:24;9.10;;;3.00;;
76863;SDS011;65834;52.364;9.754;2023-05-10T11:19:24;8.38;;;3.13;;
76863;SDS011;65834;52.364;9.754;2023-05-10T11:22:11;6.72;;;2.85;;
76863;SDS011;65834;52.364;9.754;2023-05-10T11:24:48;7.50;;;2.85;;
76863;SDS011;65834;52.364;9.754;2023-05-10T11:27:25;8.05;;;2.95;;
76863;SDS011;65834;52.364;9.754;2023-05-10T11:29:58;8.25;;;3.60;;
76863;SDS011;65834;52.364;9.754;2023-05-10T11:32:30;8.45;;;3.03;;
76863;SDS011;65834;52.364;9.754;2023-05-10T11:35:00;9.95;;;3.70;;
76863;SDS011;65834;52.364;9.754;2023-05-10T11:37:36;9.75;;;3.35;;
76863;SDS011;65834;52.364;9.754;2023-05-10T11:40:08;7.60;;;3.28;;
76863;SDS011;65834;52.364;9.754;2023-05-10T11:42:38;8.23;;;3.17;;
76863;SDS011;65834;52.364;9.754;2023-05-10T11:45:10;11.63;;;3.53;;
76863;SDS011;65834;52.364;9.754;2023-05-10T11:47:40;8.32;;;3.55;;
76863;SDS011;65834;52.364;9.754;2023-05-10T11:50:10;8.90;;;3.47;;
76863;SDS011;65834;52.364;9.754;2023-05-10T11:52:40;9.25;;;4.03;;
76863;SDS011;65834;52.364;9.754;2023-05-10T11:55:10;8.75;;;3.22;;
76863;SDS011;65834;52.364;9.754;2023-05-10T11:57:41;8.88;;;3.65;;
76863;SDS011;65834;52.364;9.754;2023-05-10T12:00:15;7.97;;;3.45;;
76863;SDS011;65834;52.364;9.754;2023-05-10T12:02:45;8.38;;;3.17;;
76863;SDS011;65834;52.364;9.754;2023-05-10T12:05:15;10.20;;;4.03;;
76863;SDS011;65834;52.364;9.754;2023-05-10T12:07:45;9.18;;;3.38;;
76863;SDS011;65834;52.364;9.754;2023-05-10T12:10:15;11.82;;;4.63;;
76863;SDS011;65834;52.364;9.754;2023-05-10T12:12:45;10.70;;;3.95;;
76863;SDS011;65834;52.364;9.754;2023-05-10T12:15:20;14.10;;;4.10;;
76863;SDS011;65834;52.364;9.754;2023-05-10T12:17:50;10.48;;;3.40;;
76863;SDS011;65834;52.364;9.754;2023-05-10T12:20:21;9.68;;;3.88;;
76863;SDS011;65834;52.364;9.754;2023-05-10T12:22:52;8.43;;;3.30;;
76863;SDS011;65834;52.364;9.754;2023-05-10T12:25:29;12.18;;;4.10;;
76863;SDS011;65834;52.364;9.754;2023-05-10T12:28:00;9.75;;;4.10;;
76863;SDS011;65834;52.364;9.754;2023-05-10T12:30:35;12.60;;;4.40;;
76863;SDS011;65834;52.364;9.754;2023-05-10T12:33:09;10.38;;;4.32;;
76863;SDS011;65834;52.364;9.754;2023-05-10T12:35:44;10.85;;;3.60;;
76863;SDS011;65834;52.364;9.754;2023-05-10T12:38:25;10.18;;;4.10;;
76863;SDS011;65834;52.364;9.754;2023-05-10T12:40:57;10.05;;;4.07;;
76863;SDS011;65834;52.364;9.754;2023-05-10T12:43:27;10.93;;;3.95;;
76863;SDS011;65834;52.364;9.754;2023-05-10T12:45:59;11.55;;;4.20;;
76863;SDS011;65834;52.364;9.754;2023-05-10T12:48:34;12.15;;;4.22;;
76863;SDS011;65834;52.364;9.754;2023-05-10T12:51:04;9.75;;;3.85;;
76863;SDS011;65834;52.364;9.754;2023-05-10T12:53:35;11.37;;;4.67;;
76863;SDS011;65834;52.364;9.754;2023-05-10T12:56:08;10.73;;;4.15;;
76863;SDS011;65834;52.364;9.754;2023-05-10T12:58:38;11.18;;;4.53;;
76863;SDS011;65834;52.364;9.754;2023-05-10T13:01:10;12.30;;;4.07;;
76863;SDS011;65834;52.364;9.754;2023-05-10T13:03:40;11.43;;;4.13;;
76863;SDS011;65834;52.364;9.754;2023-05-10T13:06:09;11.07;;;4.20;;
76863;SDS011;65834;52.364;9.754;2023-05-10T13:08:39;11.45;;;4.45;;
76863;SDS011;65834;52.364;9.754;2023-05-10T13:11:09;10.75;;;3.70;;
76863;SDS011;65834;52.364;9.754;2023-05-10T13:13:42;10.27;;;3.30;;
76863;SDS011;65834;52.364;9.754;2023-05-10T13:16:14;9.63;;;4.13;;
76863;SDS011;65834;52.364;9.754;2023-05-10T13:18:44;11.15;;;3.70;;
76863;SDS011;65834;52.364;9.754;2023-05-10T13:21:14;11.55;;;4.57;;
76863;SDS011;65834;52.364;9.754;2023-05-10T13:23:43;11.00;;;4.20;;
76863;SDS011;65834;52.364;9.754;2023-05-10T13:26:13;9.73;;;3.67;;
76863;SDS011;65834;52.364;9.754;2023-05-10T13:28:43;11.13;;;3.90;;
76863;SDS011;65834;52.364;9.754;2023-05-10T13:31:15;9.35;;;3.83;;
76863;SDS011;65834;52.364;9.754;2023-05-10T13:33:44;9.73;;;4.10;;
76863;SDS011;65834;52.364;9.754;2023-05-10T13:36:14;8.77;;;3.42;;
76863;SDS011;65834;52.364;9.754;2023-05-10T13:38:43;8.98;;;3.13;;
76863;SDS011;65834;52.364;9.754;2023-05-10T13:41:13;7.68;;;3.28;;
76863;SDS011;65834;52.364;9.754;2023-05-10T13:43:42;8.43;;;3.20;;
76863;SDS011;65834;52.364;9.754;2023-05-10T13:46:14;10.43;;;3.10;;
76863;SDS011;65834;52.364;9.754;2023-05-10T13:48:44;8.93;;;3.78;;
76863;SDS011;65834;52.364;9.754;2023-05-10T13:51:13;9.50;;;3.45;;
76863;SDS011;65834;52.364;9.754;2023-05-10T13:53:43;10.38;;;3.83;;
76863;SDS011;65834;52.364;9.754;2023-05-10T13:56:13;8.18;;;3.60;;
76863;SDS011;65834;52.364;9.754;2023-05-10T13:58:42;8.88;;;3.60;;
76863;SDS011;65834;52.364;9.754;2023-05-10T14:01:15;9.63;;;3.70;;
76863;SDS011;65834;52.364;9.754;2023-05-10T14:03:44;8.10;;;3.60;;
76863;SDS011;65834;52.364;9.754;2023-05-10T14:06:14;9.82;;;3.92;;
76863;SDS011;65834;52.364;9.754;2023-05-10T14:08:44;8.60;;;3.67;;
76863;SDS011;65834;52.364;9.754;2023-05-10T14:11:13;9.88;;;3.75;;
76863;SDS011;65834;52.364;9.754;2023-05-10T14:13:43;8.57;;;3.47;;
76863;SDS011;65834;52.364;9.754;2023-05-10T14:16:15;8.48;;;3.17;;
76863;SDS011;65834;52.364;9.754;2023-05-10T14:18:46;9.20;;;3.90;;
76863;SDS011;65834;52.364;9.754;2023-05-10T14:21:16;10.55;;;4.45;;
76863;SDS011;65834;52.364;9.754;2023-05-10T14:23:45;13.80;;;6.07;;
76863;SDS011;65834;52.364;9.754;2023-05-10T14:26:15;14.20;;;5.78;;
76863;SDS011;65834;52.364;9.754;2023-05-10T14:28:44;13.25;;;5.75;;
76863;SDS011;65834;52.364;9.754;2023-05-10T14:31:17;11.55;;;5.20;;
76863;SDS011;65834;52.364;9.754;2023-05-10T14:33:46;13.52;;;6.50;;
76863;SDS011;65834;52.364;9.754;2023-05-10T14:36:16;16.10;;;7.00;;
76863;SDS011;65834;52.364;9.754;2023-05-10T14:38:46;14.00;;;5.88;;
76863;SDS011;65834;52.364;9.754;2023-05-10T14:41:15;17.48;;;7.60;;
76863;SDS011;65834;52.364;9.754;2023-05-10T14:43:45;17.15;;;7.25;;
76863;SDS011;65834;52.364;9.754;2023-05-10T14:46:17;16.10;;;6.60;;
76863;SDS011;65834;52.364;9.754;2023-05-10T14:48:47;17.38;;;7.55;;
76863;SDS011;65834;52.364;9.754;2023-05-10T14:51:16;15.85;;;6.90;;
76863;SDS011;65834;52.364;9.754;2023-05-10T14:53:48;15.13;;;6.63;;
76863;SDS011;65834;52.364;9.754;2023-05-10T14:56:18;16.38;;;7.28;;
76863;SDS011;65834;52.364;9.754;2023-05-10T14:58:49;16.35;;;7.60;;
76863;SDS011;65834;52.364;9.754;2023-05-10T15:01:22;16.33;;;8.37;;
